Terminal Aerodrome Forecast
Issued by NWS

Home | Current Version | Previous Version | Text Only | Print | Product List | Glossary On
Versions: 1 2 3 4 5 6 7 8 9 10 11 12 13
000
FTUS44 KSJT 242338
TAFJCT
TAF
KJCT 242338Z 2500/2524 12008KT P6SM SCT080
     FM250400 VRB03KT P6SM SKC
     FM251200 VRB03KT P6SM SCT025
     FM251500 15006KT P6SM SCT050=

USA.gov is the U.S. government's official web portal to all federal, state and local government web resources and services.